sensor_id;sensor_type;location;lat;lon;timestamp;P1;durP1;ratioP1;P2;durP2;ratioP2
40649;SDS011;26342;42.826;23.992;2023-04-15T00:01:21;9.13;;;2.38;;
40649;SDS011;26342;42.826;23.992;2023-04-15T00:03:49;1.38;;;1.08;;
40649;SDS011;26342;42.826;23.992;2023-04-15T00:06:16;1.67;;;1.00;;
40649;SDS011;26342;42.826;23.992;2023-04-15T00:08:43;0.20;;;0.20;;
40649;SDS011;26342;42.826;23.992;2023-04-15T00:11:09;0.05;;;0.05;;
40649;SDS011;26342;42.826;23.992;2023-04-15T00:13:35;0.00;;;0.00;;
40649;SDS011;26342;42.826;23.992;2023-04-15T00:16:00;0.43;;;0.43;;
40649;SDS011;26342;42.826;23.992;2023-04-15T00:18:26;0.10;;;0.10;;
40649;SDS011;26342;42.826;23.992;2023-04-15T00:20:53;0.20;;;0.20;;
40649;SDS011;26342;42.826;23.992;2023-04-15T00:26:17;3.15;;;0.75;;
40649;SDS011;26342;42.826;23.992;2023-04-15T00:28:43;2.17;;;1.02;;
40649;SDS011;26342;42.826;23.992;2023-04-15T00:31:09;0.20;;;0.20;;
40649;SDS011;26342;42.826;23.992;2023-04-15T00:33:35;0.57;;;0.52;;
40649;SDS011;26342;42.826;23.992;2023-04-15T00:36:01;1.67;;;1.58;;
40649;SDS011;26342;42.826;23.992;2023-04-15T00:38:27;0.85;;;0.65;;
40649;SDS011;26342;42.826;23.992;2023-04-15T00:40:53;0.85;;;0.85;;
40649;SDS011;26342;42.826;23.992;2023-04-15T00:43:21;1.38;;;0.82;;
40649;SDS011;26342;42.826;23.992;2023-04-15T00:45:46;1.48;;;0.98;;
40649;SDS011;26342;42.826;23.992;2023-04-15T00:48:11;1.45;;;0.73;;
40649;SDS011;26342;42.826;23.992;2023-04-15T00:50:43;2.65;;;1.70;;
40649;SDS011;26342;42.826;23.992;2023-04-15T00:53:23;5.40;;;1.35;;
40649;SDS011;26342;42.826;23.992;2023-04-15T00:55:49;0.52;;;0.20;;
40649;SDS011;26342;42.826;23.992;2023-04-15T00:58:22;0.28;;;0.28;;
40649;SDS011;26342;42.826;23.992;2023-04-15T01:00:49;0.95;;;0.85;;
40649;SDS011;26342;42.826;23.992;2023-04-15T01:03:18;0.68;;;0.68;;
40649;SDS011;26342;42.826;23.992;2023-04-15T01:05:45;14.90;;;1.52;;
40649;SDS011;26342;42.826;23.992;2023-04-15T01:08:30;0.55;;;0.55;;
40649;SDS011;26342;42.826;23.992;2023-04-15T01:10:56;3.15;;;2.20;;
40649;SDS011;26342;42.826;23.992;2023-04-15T01:13:25;0.90;;;0.75;;
40649;SDS011;26342;42.826;23.992;2023-04-15T01:15:55;1.45;;;1.35;;
40649;SDS011;26342;42.826;23.992;2023-04-15T01:18:38;1.55;;;0.82;;
40649;SDS011;26342;42.826;23.992;2023-04-15T01:21:04;4.20;;;1.08;;
40649;SDS011;26342;42.826;23.992;2023-04-15T01:23:30;2.28;;;1.60;;
40649;SDS011;26342;42.826;23.992;2023-04-15T01:25:56;1.95;;;1.00;;
40649;SDS011;26342;42.826;23.992;2023-04-15T01:28:24;0.77;;;0.60;;
40649;SDS011;26342;42.826;23.992;2023-04-15T01:31:03;4.57;;;1.50;;
40649;SDS011;26342;42.826;23.992;2023-04-15T01:34:05;0.20;;;0.20;;
40649;SDS011;26342;42.826;23.992;2023-04-15T01:36:44;0.30;;;0.30;;
40649;SDS011;26342;42.826;23.992;2023-04-15T01:39:11;0.45;;;0.28;;
40649;SDS011;26342;42.826;23.992;2023-04-15T01:41:42;0.10;;;0.10;;
40649;SDS011;26342;42.826;23.992;2023-04-15T01:44:09;0.00;;;0.00;;
40649;SDS011;26342;42.826;23.992;2023-04-15T01:46:40;0.28;;;0.28;;
40649;SDS011;26342;42.826;23.992;2023-04-15T01:49:14;2.35;;;1.67;;
40649;SDS011;26342;42.826;23.992;2023-04-15T01:51:50;0.85;;;0.20;;
40649;SDS011;26342;42.826;23.992;2023-04-15T01:54:18;0.05;;;0.05;;
40649;SDS011;26342;42.826;23.992;2023-04-15T01:56:46;2.28;;;0.38;;
40649;SDS011;26342;42.826;23.992;2023-04-15T01:59:13;0.17;;;0.17;;
40649;SDS011;26342;42.826;23.992;2023-04-15T02:01:43;0.00;;;0.00;;
40649;SDS011;26342;42.826;23.992;2023-04-15T02:04:13;0.85;;;0.82;;
40649;SDS011;26342;42.826;23.992;2023-04-15T02:06:44;1.15;;;1.05;;
40649;SDS011;26342;42.826;23.992;2023-04-15T02:09:10;0.80;;;0.80;;
40649;SDS011;26342;42.826;23.992;2023-04-15T02:11:36;0.65;;;0.32;;
40649;SDS011;26342;42.826;23.992;2023-04-15T02:14:03;3.70;;;0.98;;
40649;SDS011;26342;42.826;23.992;2023-04-15T02:16:30;1.20;;;0.88;;
40649;SDS011;26342;42.826;23.992;2023-04-15T02:19:00;0.35;;;0.20;;
40649;SDS011;26342;42.826;23.992;2023-04-15T02:21:27;14.77;;;3.30;;
40649;SDS011;26342;42.826;23.992;2023-04-15T02:23:53;4.93;;;2.38;;
40649;SDS011;26342;42.826;23.992;2023-04-15T02:26:18;2.67;;;2.15;;
40649;SDS011;26342;42.826;23.992;2023-04-15T02:28:45;1.23;;;0.80;;
40649;SDS011;26342;42.826;23.992;2023-04-15T02:31:11;1.35;;;1.05;;
40649;SDS011;26342;42.826;23.992;2023-04-15T02:33:37;1.13;;;1.02;;
40649;SDS011;26342;42.826;23.992;2023-04-15T02:36:02;2.72;;;1.42;;
40649;SDS011;26342;42.826;23.992;2023-04-15T02:38:34;5.03;;;1.30;;
40649;SDS011;26342;42.826;23.992;2023-04-15T02:41:07;6.65;;;3.42;;
40649;SDS011;26342;42.826;23.992;2023-04-15T02:43:42;2.25;;;2.05;;
40649;SDS011;26342;42.826;23.992;2023-04-15T02:46:09;2.05;;;1.52;;
40649;SDS011;26342;42.826;23.992;2023-04-15T02:48:38;1.95;;;1.13;;
40649;SDS011;26342;42.826;23.992;2023-04-15T02:51:14;1.50;;;0.82;;
40649;SDS011;26342;42.826;23.992;2023-04-15T02:53:43;1.17;;;0.75;;
40649;SDS011;26342;42.826;23.992;2023-04-15T02:56:12;0.50;;;0.40;;
40649;SDS011;26342;42.826;23.992;2023-04-15T02:59:06;2.53;;;1.85;;
40649;SDS011;26342;42.826;23.992;2023-04-15T03:01:35;1.80;;;1.25;;
40649;SDS011;26342;42.826;23.992;2023-04-15T03:04:03;2.78;;;1.98;;
40649;SDS011;26342;42.826;23.992;2023-04-15T03:06:38;0.57;;;0.57;;
40649;SDS011;26342;42.826;23.992;2023-04-15T03:09:04;1.13;;;0.70;;
40649;SDS011;26342;42.826;23.992;2023-04-15T03:11:30;7.13;;;3.35;;
40649;SDS011;26342;42.826;23.992;2023-04-15T03:13:56;0.57;;;0.57;;
40649;SDS011;26342;42.826;23.992;2023-04-15T03:16:22;2.58;;;1.60;;
40649;SDS011;26342;42.826;23.992;2023-04-15T03:18:50;2.45;;;1.65;;
40649;SDS011;26342;42.826;23.992;2023-04-15T03:21:18;5.20;;;1.67;;
40649;SDS011;26342;42.826;23.992;2023-04-15T03:23:44;4.43;;;2.75;;
40649;SDS011;26342;42.826;23.992;2023-04-15T03:26:29;1.48;;;1.10;;
40649;SDS011;26342;42.826;23.992;2023-04-15T03:28:55;9.23;;;4.07;;
40649;SDS011;26342;42.826;23.992;2023-04-15T03:31:26;3.35;;;2.65;;
40649;SDS011;26342;42.826;23.992;2023-04-15T03:33:52;8.18;;;5.05;;
40649;SDS011;26342;42.826;23.992;2023-04-15T03:36:30;3.75;;;2.88;;
40649;SDS011;26342;42.826;23.992;2023-04-15T03:39:04;5.78;;;3.38;;
40649;SDS011;26342;42.826;23.992;2023-04-15T03:41:38;2.75;;;2.03;;
40649;SDS011;26342;42.826;23.992;2023-04-15T03:44:14;9.88;;;2.10;;
40649;SDS011;26342;42.826;23.992;2023-04-15T03:46:40;3.92;;;3.38;;
40649;SDS011;26342;42.826;23.992;2023-04-15T03:55:43;8.35;;;6.05;;
40649;SDS011;26342;42.826;23.992;2023-04-15T03:58:12;4.95;;;2.63;;
40649;SDS011;26342;42.826;23.992;2023-04-15T04:00:42;3.47;;;3.17;;
40649;SDS011;26342;42.826;23.992;2023-04-15T04:03:08;6.15;;;4.22;;
40649;SDS011;26342;42.826;23.992;2023-04-15T04:05:52;5.97;;;3.47;;
40649;SDS011;26342;42.826;23.992;2023-04-15T04:08:29;6.30;;;5.38;;
40649;SDS011;26342;42.826;23.992;2023-04-15T04:10:59;6.47;;;4.70;;
40649;SDS011;26342;42.826;23.992;2023-04-15T04:14:01;11.75;;;5.53;;
40649;SDS011;26342;42.826;23.992;2023-04-15T04:16:30;10.70;;;8.13;;
40649;SDS011;26342;42.826;23.992;2023-04-15T04:19:00;10.63;;;2.42;;
40649;SDS011;26342;42.826;23.992;2023-04-15T04:21:35;2.03;;;1.08;;
40649;SDS011;26342;42.826;23.992;2023-04-15T04:24:00;0.82;;;0.60;;
40649;SDS011;26342;42.826;23.992;2023-04-15T04:26:26;0.45;;;0.45;;
40649;SDS011;26342;42.826;23.992;2023-04-15T04:28:52;0.25;;;0.25;;
40649;SDS011;26342;42.826;23.992;2023-04-15T04:31:18;2.88;;;2.38;;
40649;SDS011;26342;42.826;23.992;2023-04-15T04:33:45;3.97;;;2.53;;
40649;SDS011;26342;42.826;23.992;2023-04-15T04:36:15;12.93;;;4.18;;
40649;SDS011;26342;42.826;23.992;2023-04-15T04:38:41;3.40;;;1.25;;
40649;SDS011;26342;42.826;23.992;2023-04-15T04:41:06;1.95;;;1.85;;
40649;SDS011;26342;42.826;23.992;2023-04-15T04:43:31;4.13;;;2.28;;
40649;SDS011;26342;42.826;23.992;2023-04-15T04:45:57;1.88;;;1.70;;
40649;SDS011;26342;42.826;23.992;2023-04-15T04:48:22;5.57;;;2.97;;
40649;SDS011;26342;42.826;23.992;2023-04-15T04:50:50;5.05;;;3.85;;
40649;SDS011;26342;42.826;23.992;2023-04-15T04:53:19;4.47;;;2.78;;
40649;SDS011;26342;42.826;23.992;2023-04-15T04:55:45;2.13;;;1.48;;
40649;SDS011;26342;42.826;23.992;2023-04-15T04:58:10;3.13;;;1.88;;
40649;SDS011;26342;42.826;23.992;2023-04-15T05:00:43;4.30;;;2.17;;
40649;SDS011;26342;42.826;23.992;2023-04-15T05:03:10;1.65;;;1.55;;
40649;SDS011;26342;42.826;23.992;2023-04-15T05:05:37;3.30;;;2.30;;
40649;SDS011;26342;42.826;23.992;2023-04-15T05:08:05;6.13;;;3.25;;
40649;SDS011;26342;42.826;23.992;2023-04-15T05:10:31;12.68;;;7.90;;
40649;SDS011;26342;42.826;23.992;2023-04-15T05:12:56;11.88;;;5.53;;
40649;SDS011;26342;42.826;23.992;2023-04-15T05:15:22;5.93;;;4.38;;
40649;SDS011;26342;42.826;23.992;2023-04-15T05:17:49;7.20;;;3.55;;
40649;SDS011;26342;42.826;23.992;2023-04-15T05:20:15;10.40;;;4.28;;
40649;SDS011;26342;42.826;23.992;2023-04-15T05:22:42;6.00;;;3.65;;
40649;SDS011;26342;42.826;23.992;2023-04-15T05:25:07;19.67;;;5.25;;
40649;SDS011;26342;42.826;23.992;2023-04-15T05:27:34;5.53;;;3.92;;
40649;SDS011;26342;42.826;23.992;2023-04-15T05:30:01;2.75;;;2.17;;
40649;SDS011;26342;42.826;23.992;2023-04-15T05:32:27;3.15;;;2.85;;
40649;SDS011;26342;42.826;23.992;2023-04-15T05:34:53;5.70;;;2.47;;
40649;SDS011;26342;42.826;23.992;2023-04-15T05:37:19;11.75;;;2.75;;
40649;SDS011;26342;42.826;23.992;2023-04-15T05:39:46;2.53;;;2.22;;
40649;SDS011;26342;42.826;23.992;2023-04-15T05:42:12;8.43;;;2.90;;
40649;SDS011;26342;42.826;23.992;2023-04-15T05:44:38;1.50;;;0.98;;
40649;SDS011;26342;42.826;23.992;2023-04-15T05:47:03;0.77;;;0.75;;
40649;SDS011;26342;42.826;23.992;2023-04-15T05:49:29;2.85;;;2.20;;
40649;SDS011;26342;42.826;23.992;2023-04-15T05:51:57;5.32;;;4.43;;
40649;SDS011;26342;42.826;23.992;2023-04-15T05:54:23;4.30;;;3.88;;
40649;SDS011;26342;42.826;23.992;2023-04-15T05:56:50;2.97;;;2.33;;
40649;SDS011;26342;42.826;23.992;2023-04-15T05:59:20;2.03;;;1.65;;
40649;SDS011;26342;42.826;23.992;2023-04-15T06:01:48;5.73;;;2.07;;
40649;SDS011;26342;42.826;23.992;2023-04-15T06:04:14;4.43;;;2.70;;
40649;SDS011;26342;42.826;23.992;2023-04-15T06:06:42;13.57;;;5.78;;
40649;SDS011;26342;42.826;23.992;2023-04-15T06:09:07;14.30;;;4.57;;
40649;SDS011;26342;42.826;23.992;2023-04-15T06:11:34;7.88;;;5.10;;
40649;SDS011;26342;42.826;23.992;2023-04-15T06:14:03;6.57;;;5.72;;
40649;SDS011;26342;42.826;23.992;2023-04-15T06:16:30;6.90;;;4.72;;
40649;SDS011;26342;42.826;23.992;2023-04-15T06:18:56;6.00;;;3.28;;
40649;SDS011;26342;42.826;23.992;2023-04-15T06:21:21;2.30;;;2.10;;
40649;SDS011;26342;42.826;23.992;2023-04-15T06:23:47;1.95;;;1.85;;
40649;SDS011;26342;42.826;23.992;2023-04-15T06:26:12;4.88;;;3.13;;
40649;SDS011;26342;42.826;23.992;2023-04-15T06:28:39;2.00;;;1.75;;
40649;SDS011;26342;42.826;23.992;2023-04-15T06:31:04;3.85;;;1.42;;
40649;SDS011;26342;42.826;23.992;2023-04-15T06:33:30;1.83;;;1.52;;
40649;SDS011;26342;42.826;23.992;2023-04-15T06:35:56;0.98;;;0.82;;
40649;SDS011;26342;42.826;23.992;2023-04-15T06:38:21;1.92;;;1.50;;
40649;SDS011;26342;42.826;23.992;2023-04-15T06:40:47;2.72;;;1.35;;
40649;SDS011;26342;42.826;23.992;2023-04-15T06:43:15;1.55;;;0.85;;
40649;SDS011;26342;42.826;23.992;2023-04-15T06:45:42;0.57;;;0.52;;
40649;SDS011;26342;42.826;23.992;2023-04-15T06:48:10;0.38;;;0.38;;
40649;SDS011;26342;42.826;23.992;2023-04-15T06:50:36;0.57;;;0.57;;
40649;SDS011;26342;42.826;23.992;2023-04-15T06:53:01;1.25;;;1.15;;
40649;SDS011;26342;42.826;23.992;2023-04-15T06:55:27;1.02;;;1.02;;
40649;SDS011;26342;42.826;23.992;2023-04-15T06:57:53;1.00;;;0.90;;
40649;SDS011;26342;42.826;23.992;2023-04-15T07:00:18;3.20;;;0.85;;
40649;SDS011;26342;42.826;23.992;2023-04-15T07:02:44;0.45;;;0.30;;
40649;SDS011;26342;42.826;23.992;2023-04-15T07:05:10;1.17;;;0.93;;
40649;SDS011;26342;42.826;23.992;2023-04-15T07:07:36;2.20;;;0.93;;
40649;SDS011;26342;42.826;23.992;2023-04-15T07:10:02;0.20;;;0.20;;
40649;SDS011;26342;42.826;23.992;2023-04-15T07:12:28;0.75;;;0.35;;
40649;SDS011;26342;42.826;23.992;2023-04-15T07:14:53;0.32;;;0.32;;
40649;SDS011;26342;42.826;23.992;2023-04-15T07:17:19;0.75;;;0.65;;
40649;SDS011;26342;42.826;23.992;2023-04-15T07:19:47;0.30;;;0.30;;
40649;SDS011;26342;42.826;23.992;2023-04-15T07:22:16;0.90;;;0.50;;
40649;SDS011;26342;42.826;23.992;2023-04-15T07:24:42;5.13;;;0.75;;
40649;SDS011;26342;42.826;23.992;2023-04-15T07:27:08;0.73;;;0.45;;
40649;SDS011;26342;42.826;23.992;2023-04-15T07:29:37;0.35;;;0.30;;
40649;SDS011;26342;42.826;23.992;2023-04-15T07:32:04;0.10;;;0.10;;
40649;SDS011;26342;42.826;23.992;2023-04-15T07:34:31;2.63;;;0.75;;
40649;SDS011;26342;42.826;23.992;2023-04-15T07:36:56;1.42;;;0.52;;
40649;SDS011;26342;42.826;23.992;2023-04-15T07:39:22;3.83;;;1.00;;
40649;SDS011;26342;42.826;23.992;2023-04-15T07:41:47;1.00;;;0.68;;
40649;SDS011;26342;42.826;23.992;2023-04-15T07:44:13;0.20;;;0.20;;
40649;SDS011;26342;42.826;23.992;2023-04-15T07:46:40;7.68;;;0.63;;
40649;SDS011;26342;42.826;23.992;2023-04-15T07:49:07;1.17;;;0.77;;
40649;SDS011;26342;42.826;23.992;2023-04-15T07:51:34;0.30;;;0.30;;
40649;SDS011;26342;42.826;23.992;2023-04-15T07:54:01;0.30;;;0.30;;
40649;SDS011;26342;42.826;23.992;2023-04-15T07:56:27;0.20;;;0.20;;
40649;SDS011;26342;42.826;23.992;2023-04-15T07:58:52;2.08;;;0.40;;
40649;SDS011;26342;42.826;23.992;2023-04-15T08:01:18;0.25;;;0.25;;
40649;SDS011;26342;42.826;23.992;2023-04-15T08:03:43;0.10;;;0.10;;
40649;SDS011;26342;42.826;23.992;2023-04-15T08:06:09;0.22;;;0.22;;
40649;SDS011;26342;42.826;23.992;2023-04-15T08:08:34;1.20;;;0.20;;
40649;SDS011;26342;42.826;23.992;2023-04-15T08:11:00;0.30;;;0.30;;
40649;SDS011;26342;42.826;23.992;2023-04-15T08:13:27;2.60;;;0.28;;
40649;SDS011;26342;42.826;23.992;2023-04-15T08:16:12;0.10;;;0.10;;
40649;SDS011;26342;42.826;23.992;2023-04-15T08:18:38;0.10;;;0.10;;
40649;SDS011;26342;42.826;23.992;2023-04-15T08:21:03;0.20;;;0.20;;
40649;SDS011;26342;42.826;23.992;2023-04-15T08:23:30;0.22;;;0.22;;
40649;SDS011;26342;42.826;23.992;2023-04-15T08:25:56;0.20;;;0.15;;
40649;SDS011;26342;42.826;23.992;2023-04-15T08:28:22;3.65;;;1.23;;
40649;SDS011;26342;42.826;23.992;2023-04-15T08:30:48;0.00;;;0.00;;
40649;SDS011;26342;42.826;23.992;2023-04-15T08:33:16;1.20;;;0.70;;
40649;SDS011;26342;42.826;23.992;2023-04-15T08:35:47;0.20;;;0.20;;
40649;SDS011;26342;42.826;23.992;2023-04-15T08:38:14;0.82;;;0.60;;
40649;SDS011;26342;42.826;23.992;2023-04-15T08:40:40;0.20;;;0.20;;
40649;SDS011;26342;42.826;23.992;2023-04-15T08:43:23;0.20;;;0.20;;
40649;SDS011;26342;42.826;23.992;2023-04-15T08:45:54;0.17;;;0.17;;
40649;SDS011;26342;42.826;23.992;2023-04-15T08:48:20;0.82;;;0.30;;
40649;SDS011;26342;42.826;23.992;2023-04-15T08:50:48;4.50;;;1.10;;
40649;SDS011;26342;42.826;23.992;2023-04-15T08:53:16;0.00;;;0.00;;
40649;SDS011;26342;42.826;23.992;2023-04-15T08:55:43;0.30;;;0.28;;
40649;SDS011;26342;42.826;23.992;2023-04-15T08:58:11;0.40;;;0.40;;
40649;SDS011;26342;42.826;23.992;2023-04-15T09:00:41;6.90;;;0.93;;
40649;SDS011;26342;42.826;23.992;2023-04-15T09:03:07;0.20;;;0.20;;
40649;SDS011;26342;42.826;23.992;2023-04-15T09:05:34;0.38;;;0.38;;
40649;SDS011;26342;42.826;23.992;2023-04-15T09:08:00;0.20;;;0.20;;
40649;SDS011;26342;42.826;23.992;2023-04-15T09:10:26;0.00;;;0.00;;
40649;SDS011;26342;42.826;23.992;2023-04-15T09:12:54;0.10;;;0.10;;
40649;SDS011;26342;42.826;23.992;2023-04-15T09:15:20;0.40;;;0.40;;
40649;SDS011;26342;42.826;23.992;2023-04-15T09:17:55;0.10;;;0.10;;
40649;SDS011;26342;42.826;23.992;2023-04-15T09:20:22;0.10;;;0.10;;
40649;SDS011;26342;42.826;23.992;2023-04-15T09:22:48;0.28;;;0.28;;
40649;SDS011;26342;42.826;23.992;2023-04-15T09:27:59;0.08;;;0.08;;
40649;SDS011;26342;42.826;23.992;2023-04-15T09:30:29;0.15;;;0.15;;
40649;SDS011;26342;42.826;23.992;2023-04-15T09:32:58;0.65;;;0.10;;
40649;SDS011;26342;42.826;23.992;2023-04-15T09:35:26;0.03;;;0.03;;
40649;SDS011;26342;42.826;23.992;2023-04-15T09:37:53;0.30;;;0.30;;
40649;SDS011;26342;42.826;23.992;2023-04-15T09:42:59;0.32;;;0.32;;
40649;SDS011;26342;42.826;23.992;2023-04-15T09:45:29;0.10;;;0.10;;
40649;SDS011;26342;42.826;23.992;2023-04-15T09:47:59;0.00;;;0.00;;
40649;SDS011;26342;42.826;23.992;2023-04-15T09:50:45;0.28;;;0.28;;
40649;SDS011;26342;42.826;23.992;2023-04-15T09:53:20;0.10;;;0.10;;
40649;SDS011;26342;42.826;23.992;2023-04-15T09:58:28;0.10;;;0.10;;
40649;SDS011;26342;42.826;23.992;2023-04-15T10:00:57;0.35;;;0.32;;
40649;SDS011;26342;42.826;23.992;2023-04-15T10:03:28;7.75;;;0.30;;
40649;SDS011;26342;42.826;23.992;2023-04-15T10:05:57;0.13;;;0.13;;
40649;SDS011;26342;42.826;23.992;2023-04-15T10:08:28;0.13;;;0.13;;
40649;SDS011;26342;42.826;23.992;2023-04-15T10:11:03;0.45;;;0.30;;
40649;SDS011;26342;42.826;23.992;2023-04-15T10:13:31;0.10;;;0.10;;
40649;SDS011;26342;42.826;23.992;2023-04-15T10:16:10;5.45;;;0.68;;
40649;SDS011;26342;42.826;23.992;2023-04-15T10:18:44;1.65;;;0.30;;
40649;SDS011;26342;42.826;23.992;2023-04-15T10:21:11;0.38;;;0.25;;
40649;SDS011;26342;42.826;23.992;2023-04-15T10:23:42;1.15;;;0.52;;
40649;SDS011;26342;42.826;23.992;2023-04-15T10:26:11;0.10;;;0.10;;
40649;SDS011;26342;42.826;23.992;2023-04-15T10:28:47;0.30;;;0.15;;
40649;SDS011;26342;42.826;23.992;2023-04-15T10:31:14;0.05;;;0.05;;
40649;SDS011;26342;42.826;23.992;2023-04-15T10:33:40;0.88;;;0.32;;
40649;SDS011;26342;42.826;23.992;2023-04-15T10:36:07;0.52;;;0.52;;
40649;SDS011;26342;42.826;23.992;2023-04-15T10:41:20;0.15;;;0.15;;
40649;SDS011;26342;42.826;23.992;2023-04-15T10:49:06;1.30;;;0.80;;
40649;SDS011;26342;42.826;23.992;2023-04-15T10:51:32;1.20;;;0.95;;
40649;SDS011;26342;42.826;23.992;2023-04-15T10:53:58;0.10;;;0.10;;
40649;SDS011;26342;42.826;23.992;2023-04-15T10:56:24;0.00;;;0.00;;
40649;SDS011;26342;42.826;23.992;2023-04-15T10:58:52;0.20;;;0.20;;
40649;SDS011;26342;42.826;23.992;2023-04-15T11:01:19;0.40;;;0.40;;
40649;SDS011;26342;42.826;23.992;2023-04-15T11:03:47;1.42;;;0.95;;
40649;SDS011;26342;42.826;23.992;2023-04-15T11:06:15;1.75;;;0.20;;
40649;SDS011;26342;42.826;23.992;2023-04-15T11:08:57;0.20;;;0.20;;
40649;SDS011;26342;42.826;23.992;2023-04-15T11:14:31;0.30;;;0.30;;
40649;SDS011;26342;42.826;23.992;2023-04-15T11:16:58;1.80;;;1.02;;
40649;SDS011;26342;42.826;23.992;2023-04-15T11:19:23;0.00;;;0.00;;
40649;SDS011;26342;42.826;23.992;2023-04-15T11:21:49;0.10;;;0.10;;
40649;SDS011;26342;42.826;23.992;2023-04-15T11:24:24;0.20;;;0.20;;
40649;SDS011;26342;42.826;23.992;2023-04-15T11:26:58;0.20;;;0.20;;
40649;SDS011;26342;42.826;23.992;2023-04-15T11:29:33;0.10;;;0.10;;
40649;SDS011;26342;42.826;23.992;2023-04-15T11:32:07;0.47;;;0.47;;
40649;SDS011;26342;42.826;23.992;2023-04-15T11:34:33;1.23;;;0.70;;
40649;SDS011;26342;42.826;23.992;2023-04-15T11:37:02;0.47;;;0.35;;
40649;SDS011;26342;42.826;23.992;2023-04-15T11:39:30;0.47;;;0.47;;
40649;SDS011;26342;42.826;23.992;2023-04-15T11:41:56;1.23;;;0.20;;
40649;SDS011;26342;42.826;23.992;2023-04-15T11:44:22;8.88;;;0.38;;
40649;SDS011;26342;42.826;23.992;2023-04-15T11:46:47;1.35;;;0.98;;
40649;SDS011;26342;42.826;23.992;2023-04-15T11:49:33;0.43;;;0.43;;
40649;SDS011;26342;42.826;23.992;2023-04-15T11:52:09;0.15;;;0.15;;
40649;SDS011;26342;42.826;23.992;2023-04-15T11:54:35;0.20;;;0.10;;
40649;SDS011;26342;42.826;23.992;2023-04-15T11:57:01;0.20;;;0.20;;
40649;SDS011;26342;42.826;23.992;2023-04-15T11:59:40;0.10;;;0.10;;
40649;SDS011;26342;42.826;23.992;2023-04-15T12:02:10;0.10;;;0.10;;
40649;SDS011;26342;42.826;23.992;2023-04-15T12:04:38;0.10;;;0.10;;
40649;SDS011;26342;42.826;23.992;2023-04-15T12:07:04;0.20;;;0.20;;
40649;SDS011;26342;42.826;23.992;2023-04-15T12:09:30;0.10;;;0.10;;
40649;SDS011;26342;42.826;23.992;2023-04-15T12:12:01;0.15;;;0.15;;
40649;SDS011;26342;42.826;23.992;2023-04-15T12:16:57;0.30;;;0.30;;
40649;SDS011;26342;42.826;23.992;2023-04-15T12:22:02;0.00;;;0.00;;
40649;SDS011;26342;42.826;23.992;2023-04-15T12:24:31;0.85;;;0.32;;
40649;SDS011;26342;42.826;23.992;2023-04-15T12:27:02;0.10;;;0.10;;
40649;SDS011;26342;42.826;23.992;2023-04-15T12:29:33;0.60;;;0.38;;
40649;SDS011;26342;42.826;23.992;2023-04-15T12:37:06;0.00;;;0.00;;
40649;SDS011;26342;42.826;23.992;2023-04-15T12:39:34;1.95;;;0.30;;
40649;SDS011;26342;42.826;23.992;2023-04-15T12:42:01;0.10;;;0.10;;
40649;SDS011;26342;42.826;23.992;2023-04-15T12:44:29;0.00;;;0.00;;
40649;SDS011;26342;42.826;23.992;2023-04-15T12:46:55;0.30;;;0.30;;
40649;SDS011;26342;42.826;23.992;2023-04-15T12:49:24;0.00;;;0.00;;
40649;SDS011;26342;42.826;23.992;2023-04-15T12:51:51;0.10;;;0.10;;
40649;SDS011;26342;42.826;23.992;2023-04-15T12:54:19;0.40;;;0.17;;
40649;SDS011;26342;42.826;23.992;2023-04-15T12:56:45;0.20;;;0.13;;
40649;SDS011;26342;42.826;23.992;2023-04-15T12:59:12;2.10;;;0.35;;
40649;SDS011;26342;42.826;23.992;2023-04-15T13:01:38;0.10;;;0.10;;
40649;SDS011;26342;42.826;23.992;2023-04-15T13:04:04;0.28;;;0.28;;
40649;SDS011;26342;42.826;23.992;2023-04-15T13:06:30;0.00;;;0.00;;
40649;SDS011;26342;42.826;23.992;2023-04-15T13:08:58;0.20;;;0.20;;
40649;SDS011;26342;42.826;23.992;2023-04-15T13:11:23;0.82;;;0.65;;
40649;SDS011;26342;42.826;23.992;2023-04-15T13:13:50;0.47;;;0.13;;
40649;SDS011;26342;42.826;23.992;2023-04-15T13:16:16;0.20;;;0.20;;
40649;SDS011;26342;42.826;23.992;2023-04-15T13:18:43;0.32;;;0.28;;
40649;SDS011;26342;42.826;23.992;2023-04-15T13:21:09;0.65;;;0.25;;
40649;SDS011;26342;42.826;23.992;2023-04-15T13:23:35;0.20;;;0.20;;
40649;SDS011;26342;42.826;23.992;2023-04-15T13:26:01;0.10;;;0.08;;
40649;SDS011;26342;42.826;23.992;2023-04-15T13:28:26;1.70;;;0.40;;
40649;SDS011;26342;42.826;23.992;2023-04-15T13:30:53;0.10;;;0.10;;
40649;SDS011;26342;42.826;23.992;2023-04-15T13:33:19;0.10;;;0.10;;
40649;SDS011;26342;42.826;23.992;2023-04-15T13:35:45;0.28;;;0.28;;
40649;SDS011;26342;42.826;23.992;2023-04-15T13:38:11;0.13;;;0.13;;
40649;SDS011;26342;42.826;23.992;2023-04-15T13:40:37;0.52;;;0.52;;
40649;SDS011;26342;42.826;23.992;2023-04-15T13:43:06;0.10;;;0.10;;
40649;SDS011;26342;42.826;23.992;2023-04-15T13:46:01;0.57;;;0.57;;
40649;SDS011;26342;42.826;23.992;2023-04-15T13:48:27;0.65;;;0.38;;
40649;SDS011;26342;42.826;23.992;2023-04-15T13:50:53;0.22;;;0.22;;
40649;SDS011;26342;42.826;23.992;2023-04-15T13:53:19;0.13;;;0.13;;
40649;SDS011;26342;42.826;23.992;2023-04-15T13:55:45;0.30;;;0.30;;
40649;SDS011;26342;42.826;23.992;2023-04-15T13:58:10;0.85;;;0.30;;
40649;SDS011;26342;42.826;23.992;2023-04-15T14:00:36;3.20;;;2.25;;
40649;SDS011;26342;42.826;23.992;2023-04-15T14:03:01;0.20;;;0.20;;
40649;SDS011;26342;42.826;23.992;2023-04-15T14:05:29;1.27;;;0.88;;
40649;SDS011;26342;42.826;23.992;2023-04-15T14:07:55;0.10;;;0.10;;
40649;SDS011;26342;42.826;23.992;2023-04-15T14:10:21;1.70;;;1.40;;
40649;SDS011;26342;42.826;23.992;2023-04-15T14:12:46;1.95;;;0.70;;
40649;SDS011;26342;42.826;23.992;2023-04-15T14:15:11;1.63;;;0.93;;
40649;SDS011;26342;42.826;23.992;2023-04-15T14:17:37;0.20;;;0.20;;
40649;SDS011;26342;42.826;23.992;2023-04-15T14:20:03;0.30;;;0.30;;
40649;SDS011;26342;42.826;23.992;2023-04-15T14:22:30;0.60;;;0.45;;
40649;SDS011;26342;42.826;23.992;2023-04-15T14:24:56;0.40;;;0.22;;
40649;SDS011;26342;42.826;23.992;2023-04-15T14:27:25;0.28;;;0.28;;
40649;SDS011;26342;42.826;23.992;2023-04-15T14:29:51;3.97;;;3.00;;
40649;SDS011;26342;42.826;23.992;2023-04-15T14:32:18;9.02;;;3.40;;
40649;SDS011;26342;42.826;23.992;2023-04-15T14:34:44;6.72;;;1.83;;
40649;SDS011;26342;42.826;23.992;2023-04-15T14:37:11;3.92;;;1.48;;
40649;SDS011;26342;42.826;23.992;2023-04-15T14:39:38;1.85;;;1.25;;
40649;SDS011;26342;42.826;23.992;2023-04-15T14:42:05;1.40;;;0.73;;
40649;SDS011;26342;42.826;23.992;2023-04-15T14:44:31;1.08;;;0.70;;
40649;SDS011;26342;42.826;23.992;2023-04-15T14:46:56;0.30;;;0.10;;
40649;SDS011;26342;42.826;23.992;2023-04-15T14:49:26;0.30;;;0.30;;
40649;SDS011;26342;42.826;23.992;2023-04-15T14:51:52;0.90;;;0.45;;
40649;SDS011;26342;42.826;23.992;2023-04-15T14:54:18;0.35;;;0.35;;
40649;SDS011;26342;42.826;23.992;2023-04-15T14:56:45;0.45;;;0.45;;
40649;SDS011;26342;42.826;23.992;2023-04-15T14:59:10;0.47;;;0.40;;
40649;SDS011;26342;42.826;23.992;2023-04-15T15:01:36;0.15;;;0.15;;
40649;SDS011;26342;42.826;23.992;2023-04-15T15:04:01;0.03;;;0.03;;
40649;SDS011;26342;42.826;23.992;2023-04-15T15:06:26;0.32;;;0.32;;
40649;SDS011;26342;42.826;23.992;2023-04-15T15:08:53;0.38;;;0.30;;
40649;SDS011;26342;42.826;23.992;2023-04-15T15:11:19;0.20;;;0.20;;
40649;SDS011;26342;42.826;23.992;2023-04-15T15:13:55;0.20;;;0.20;;
40649;SDS011;26342;42.826;23.992;2023-04-15T15:16:22;0.52;;;0.52;;
40649;SDS011;26342;42.826;23.992;2023-04-15T15:18:49;1.35;;;0.52;;